Swissdale, Pennsylvania
Current Conditions -  °F | °C
As of 6:54 PM on Friday 19 Dec 2014 (Local Time) from KIPT Reporting Station
Overcast Overcast  
Wind Chill: 26°   Ceiling: 4200
Heat Index: 33°   Visibility: 10mi
Dew Point: 20°   Wind: 8mph
Humidity: 59%   Direction: 330°NNW
Pressure: 30.19"   Gusts: NA
Location:  41.2558°N, 77.4987°W
Report Text: KIPT 192354Z 33007KT 10SM OVC042 01/M07 A3019 RMK AO2 SLP230 T00061067 10028 20006 53020
Loading
Personal Weather Stations






























Interactive Weather Map New forecast layout! Learn more

10-Day Weather Forecast

Advertisements
Track Severe Weather on mobile